sensor_id;sensor_type;location;lat;lon;timestamp;P1;durP1;ratioP1;P2;durP2;ratioP2
53285;SDS011;39171;45.550;12.074;2022-07-29T00:03:01;3.15;;;2.80;;
53285;SDS011;39171;45.550;12.074;2022-07-29T00:09:03;3.00;;;2.70;;
53285;SDS011;39171;45.550;12.074;2022-07-29T00:15:04;3.10;;;2.50;;
53285;SDS011;39171;45.550;12.074;2022-07-29T00:21:06;4.03;;;2.65;;
53285;SDS011;39171;45.550;12.074;2022-07-29T00:27:08;4.47;;;3.55;;
53285;SDS011;39171;45.550;12.074;2022-07-29T00:33:09;4.32;;;3.92;;
53285;SDS011;39171;45.550;12.074;2022-07-29T00:39:11;4.25;;;3.80;;
53285;SDS011;39171;45.550;12.074;2022-07-29T00:45:12;3.47;;;3.17;;
53285;SDS011;39171;45.550;12.074;2022-07-29T00:51:14;3.35;;;3.05;;
53285;SDS011;39171;45.550;12.074;2022-07-29T00:57:16;2.33;;;2.13;;
53285;SDS011;39171;45.550;12.074;2022-07-29T01:03:18;2.65;;;2.08;;
53285;SDS011;39171;45.550;12.074;2022-07-29T01:09:19;2.00;;;1.42;;
53285;SDS011;39171;45.550;12.074;2022-07-29T01:15:22;1.90;;;1.38;;
53285;SDS011;39171;45.550;12.074;2022-07-29T01:34:05;1.17;;;1.00;;
53285;SDS011;39171;45.550;12.074;2022-07-29T01:40:13;2.10;;;1.45;;
53285;SDS011;39171;45.550;12.074;2022-07-29T01:46:25;1.50;;;1.20;;
53285;SDS011;39171;45.550;12.074;2022-07-29T01:52:54;1.50;;;1.23;;
53285;SDS011;39171;45.550;12.074;2022-07-29T01:58:56;1.45;;;1.08;;
53285;SDS011;39171;45.550;12.074;2022-07-29T02:04:59;1.45;;;1.27;;
53285;SDS011;39171;45.550;12.074;2022-07-29T02:11:03;1.40;;;1.05;;
53285;SDS011;39171;45.550;12.074;2022-07-29T02:17:06;1.10;;;0.93;;
53285;SDS011;39171;45.550;12.074;2022-07-29T02:23:09;1.20;;;1.00;;
53285;SDS011;39171;45.550;12.074;2022-07-29T02:29:12;1.30;;;1.00;;
53285;SDS011;39171;45.550;12.074;2022-07-29T02:35:16;1.42;;;1.20;;
53285;SDS011;39171;45.550;12.074;2022-07-29T02:47:47;1.63;;;1.50;;
53285;SDS011;39171;45.550;12.074;2022-07-29T02:53:51;1.30;;;1.10;;
53285;SDS011;39171;45.550;12.074;2022-07-29T02:59:57;1.23;;;1.05;;
53285;SDS011;39171;45.550;12.074;2022-07-29T03:06:04;1.63;;;1.20;;
53285;SDS011;39171;45.550;12.074;2022-07-29T03:12:07;1.45;;;1.20;;
53285;SDS011;39171;45.550;12.074;2022-07-29T03:18:09;1.38;;;1.00;;
53285;SDS011;39171;45.550;12.074;2022-07-29T03:24:23;1.50;;;1.20;;
53285;SDS011;39171;45.550;12.074;2022-07-29T03:30:34;1.40;;;1.13;;
53285;SDS011;39171;45.550;12.074;2022-07-29T03:37:08;1.30;;;1.10;;
53285;SDS011;39171;45.550;12.074;2022-07-29T03:43:12;1.60;;;1.10;;
53285;SDS011;39171;45.550;12.074;2022-07-29T03:49:17;2.03;;;1.42;;
53285;SDS011;39171;45.550;12.074;2022-07-29T03:55:20;1.92;;;1.63;;
53285;SDS011;39171;45.550;12.074;2022-07-29T04:01:21;2.00;;;1.52;;
53285;SDS011;39171;45.550;12.074;2022-07-29T04:07:24;2.33;;;1.83;;
53285;SDS011;39171;45.550;12.074;2022-07-29T04:13:26;1.85;;;1.60;;
53285;SDS011;39171;45.550;12.074;2022-07-29T04:19:28;1.95;;;1.40;;
53285;SDS011;39171;45.550;12.074;2022-07-29T04:25:30;2.30;;;1.80;;
53285;SDS011;39171;45.550;12.074;2022-07-29T04:31:31;2.78;;;2.10;;
53285;SDS011;39171;45.550;12.074;2022-07-29T04:37:32;1.90;;;1.65;;
53285;SDS011;39171;45.550;12.074;2022-07-29T04:43:34;2.25;;;2.00;;
53285;SDS011;39171;45.550;12.074;2022-07-29T04:49:39;2.60;;;2.17;;
53285;SDS011;39171;45.550;12.074;2022-07-29T04:55:41;2.03;;;1.73;;
53285;SDS011;39171;45.550;12.074;2022-07-29T05:01:42;1.90;;;1.67;;
53285;SDS011;39171;45.550;12.074;2022-07-29T05:07:44;2.08;;;1.70;;
53285;SDS011;39171;45.550;12.074;2022-07-29T05:13:45;2.15;;;1.70;;
53285;SDS011;39171;45.550;12.074;2022-07-29T05:19:46;2.80;;;1.92;;
53285;SDS011;39171;45.550;12.074;2022-07-29T05:25:48;2.33;;;1.95;;
53285;SDS011;39171;45.550;12.074;2022-07-29T05:31:50;2.38;;;2.08;;
53285;SDS011;39171;45.550;12.074;2022-07-29T05:37:53;2.40;;;1.88;;
53285;SDS011;39171;45.550;12.074;2022-07-29T05:43:54;2.17;;;1.70;;
53285;SDS011;39171;45.550;12.074;2022-07-29T05:49:56;2.35;;;1.98;;
53285;SDS011;39171;45.550;12.074;2022-07-29T05:55:57;2.20;;;1.80;;
53285;SDS011;39171;45.550;12.074;2022-07-29T06:01:59;2.33;;;2.08;;
53285;SDS011;39171;45.550;12.074;2022-07-29T06:08:00;2.20;;;1.80;;
53285;SDS011;39171;45.550;12.074;2022-07-29T06:14:05;1.90;;;1.70;;
53285;SDS011;39171;45.550;12.074;2022-07-29T06:20:07;1.52;;;1.40;;
53285;SDS011;39171;45.550;12.074;2022-07-29T06:26:09;1.90;;;1.55;;
53285;SDS011;39171;45.550;12.074;2022-07-29T06:32:10;1.90;;;1.60;;
53285;SDS011;39171;45.550;12.074;2022-07-29T06:38:11;1.70;;;1.60;;
53285;SDS011;39171;45.550;12.074;2022-07-29T06:44:14;2.30;;;1.60;;
53285;SDS011;39171;45.550;12.074;2022-07-29T06:50:16;1.95;;;1.75;;
53285;SDS011;39171;45.550;12.074;2022-07-29T06:56:17;1.90;;;1.52;;
53285;SDS011;39171;45.550;12.074;2022-07-29T07:02:22;1.98;;;1.50;;
53285;SDS011;39171;45.550;12.074;2022-07-29T07:08:24;2.00;;;1.60;;
53285;SDS011;39171;45.550;12.074;2022-07-29T07:14:25;2.17;;;1.65;;
53285;SDS011;39171;45.550;12.074;2022-07-29T07:20:28;1.75;;;1.60;;
53285;SDS011;39171;45.550;12.074;2022-07-29T07:26:30;1.73;;;1.55;;
53285;SDS011;39171;45.550;12.074;2022-07-29T07:32:35;1.70;;;1.40;;
53285;SDS011;39171;45.550;12.074;2022-07-29T07:38:37;1.70;;;1.52;;
53285;SDS011;39171;45.550;12.074;2022-07-29T07:44:39;2.00;;;1.67;;
53285;SDS011;39171;45.550;12.074;2022-07-29T07:50:40;1.80;;;1.60;;
53285;SDS011;39171;45.550;12.074;2022-07-29T07:56:42;1.85;;;1.50;;
53285;SDS011;39171;45.550;12.074;2022-07-29T08:02:43;1.60;;;1.35;;
53285;SDS011;39171;45.550;12.074;2022-07-29T08:08:46;1.92;;;1.50;;
53285;SDS011;39171;45.550;12.074;2022-07-29T08:14:48;1.83;;;1.48;;
53285;SDS011;39171;45.550;12.074;2022-07-29T08:20:49;1.13;;;1.00;;
53285;SDS011;39171;45.550;12.074;2022-07-29T08:26:50;1.50;;;1.25;;
53285;SDS011;39171;45.550;12.074;2022-07-29T08:32:52;1.30;;;1.17;;
53285;SDS011;39171;45.550;12.074;2022-07-29T08:38:53;1.48;;;1.15;;
53285;SDS011;39171;45.550;12.074;2022-07-29T08:44:55;1.80;;;1.30;;
53285;SDS011;39171;45.550;12.074;2022-07-29T08:50:58;1.52;;;1.25;;
53285;SDS011;39171;45.550;12.074;2022-07-29T08:57:01;1.40;;;1.13;;
53285;SDS011;39171;45.550;12.074;2022-07-29T09:03:03;1.65;;;1.27;;
53285;SDS011;39171;45.550;12.074;2022-07-29T09:09:07;1.05;;;0.95;;
53285;SDS011;39171;45.550;12.074;2022-07-29T09:15:08;1.77;;;1.27;;
53285;SDS011;39171;45.550;12.074;2022-07-29T09:21:11;1.35;;;1.20;;
53285;SDS011;39171;45.550;12.074;2022-07-29T09:27:33;1.63;;;1.50;;
53285;SDS011;39171;45.550;12.074;2022-07-29T09:33:35;1.40;;;1.25;;
53285;SDS011;39171;45.550;12.074;2022-07-29T09:39:37;1.60;;;1.38;;
53285;SDS011;39171;45.550;12.074;2022-07-29T09:45:49;1.73;;;1.52;;
53285;SDS011;39171;45.550;12.074;2022-07-29T09:52:04;1.55;;;1.40;;
53285;SDS011;39171;45.550;12.074;2022-07-29T10:04:21;1.70;;;1.48;;
53285;SDS011;39171;45.550;12.074;2022-07-29T10:10:24;1.58;;;1.27;;
53285;SDS011;39171;45.550;12.074;2022-07-29T10:16:32;1.88;;;1.40;;
53285;SDS011;39171;45.550;12.074;2022-07-29T10:22:33;1.60;;;1.40;;
53285;SDS011;39171;45.550;12.074;2022-07-29T10:28:35;1.50;;;1.15;;
53285;SDS011;39171;45.550;12.074;2022-07-29T10:34:46;1.85;;;1.38;;
53285;SDS011;39171;45.550;12.074;2022-07-29T10:41:11;1.25;;;1.15;;
53285;SDS011;39171;45.550;12.074;2022-07-29T10:47:30;1.63;;;1.20;;
53285;SDS011;39171;45.550;12.074;2022-07-29T10:53:50;1.98;;;1.67;;
53285;SDS011;39171;45.550;12.074;2022-07-29T11:06:11;1.50;;;1.40;;
53285;SDS011;39171;45.550;12.074;2022-07-29T11:25:16;2.38;;;1.70;;
53285;SDS011;39171;45.550;12.074;2022-07-29T11:44:53;1.30;;;1.10;;
53285;SDS011;39171;45.550;12.074;2022-07-29T11:51:16;2.17;;;1.73;;
53285;SDS011;39171;45.550;12.074;2022-07-29T11:57:23;2.47;;;1.40;;
53285;SDS011;39171;45.550;12.074;2022-07-29T12:03:26;2.70;;;2.10;;
53285;SDS011;39171;45.550;12.074;2022-07-29T12:09:29;2.28;;;1.85;;
53285;SDS011;39171;45.550;12.074;2022-07-29T12:15:31;2.63;;;2.00;;
53285;SDS011;39171;45.550;12.074;2022-07-29T12:28:00;2.92;;;2.38;;
53285;SDS011;39171;45.550;12.074;2022-07-29T12:34:03;2.88;;;2.22;;
53285;SDS011;39171;45.550;12.074;2022-07-29T12:40:08;3.03;;;2.28;;
53285;SDS011;39171;45.550;12.074;2022-07-29T12:46:12;3.55;;;2.45;;
53285;SDS011;39171;45.550;12.074;2022-07-29T12:52:23;4.47;;;2.53;;
53285;SDS011;39171;45.550;12.074;2022-07-29T12:58:32;4.50;;;3.30;;
53285;SDS011;39171;45.550;12.074;2022-07-29T13:04:42;3.65;;;3.22;;
53285;SDS011;39171;45.550;12.074;2022-07-29T13:10:44;5.18;;;3.08;;
53285;SDS011;39171;45.550;12.074;2022-07-29T13:23:10;4.05;;;3.60;;
53285;SDS011;39171;45.550;12.074;2022-07-29T13:29:11;4.20;;;3.58;;
53285;SDS011;39171;45.550;12.074;2022-07-29T13:35:15;5.32;;;3.15;;
53285;SDS011;39171;45.550;12.074;2022-07-29T13:41:17;4.30;;;3.38;;
53285;SDS011;39171;45.550;12.074;2022-07-29T13:47:19;5.25;;;3.28;;
53285;SDS011;39171;45.550;12.074;2022-07-29T13:53:21;6.07;;;2.88;;
53285;SDS011;39171;45.550;12.074;2022-07-29T13:59:23;4.32;;;3.60;;
53285;SDS011;39171;45.550;12.074;2022-07-29T14:05:25;3.80;;;3.15;;
53285;SDS011;39171;45.550;12.074;2022-07-29T14:11:27;3.30;;;2.95;;
53285;SDS011;39171;45.550;12.074;2022-07-29T14:17:29;4.15;;;2.78;;
53285;SDS011;39171;45.550;12.074;2022-07-29T14:23:30;3.25;;;2.90;;
53285;SDS011;39171;45.550;12.074;2022-07-29T14:29:32;3.47;;;3.05;;
53285;SDS011;39171;45.550;12.074;2022-07-29T14:35:34;4.70;;;3.63;;
53285;SDS011;39171;45.550;12.074;2022-07-29T14:41:36;3.75;;;3.00;;
53285;SDS011;39171;45.550;12.074;2022-07-29T14:47:38;3.65;;;2.95;;
53285;SDS011;39171;45.550;12.074;2022-07-29T14:53:40;4.32;;;3.00;;
53285;SDS011;39171;45.550;12.074;2022-07-29T14:59:41;3.40;;;3.00;;
53285;SDS011;39171;45.550;12.074;2022-07-29T15:05:43;3.70;;;2.78;;
53285;SDS011;39171;45.550;12.074;2022-07-29T15:11:44;4.15;;;2.75;;
53285;SDS011;39171;45.550;12.074;2022-07-29T15:17:46;4.97;;;3.50;;
53285;SDS011;39171;45.550;12.074;2022-07-29T15:23:48;4.07;;;2.70;;
53285;SDS011;39171;45.550;12.074;2022-07-29T15:29:49;2.50;;;2.03;;
53285;SDS011;39171;45.550;12.074;2022-07-29T15:35:52;4.30;;;2.67;;
53285;SDS011;39171;45.550;12.074;2022-07-29T15:41:54;2.70;;;2.30;;
53285;SDS011;39171;45.550;12.074;2022-07-29T15:47:55;2.80;;;2.15;;
53285;SDS011;39171;45.550;12.074;2022-07-29T15:53:57;2.47;;;2.13;;
53285;SDS011;39171;45.550;12.074;2022-07-29T15:59:59;3.33;;;2.35;;
53285;SDS011;39171;45.550;12.074;2022-07-29T16:06:00;2.85;;;2.53;;
53285;SDS011;39171;45.550;12.074;2022-07-29T16:12:02;2.65;;;2.30;;
53285;SDS011;39171;45.550;12.074;2022-07-29T16:18:04;2.92;;;2.35;;
53285;SDS011;39171;45.550;12.074;2022-07-29T16:24:06;2.83;;;1.80;;
53285;SDS011;39171;45.550;12.074;2022-07-29T16:30:07;2.47;;;1.98;;
53285;SDS011;39171;45.550;12.074;2022-07-29T16:36:09;2.33;;;1.90;;
53285;SDS011;39171;45.550;12.074;2022-07-29T16:42:11;3.38;;;2.10;;
53285;SDS011;39171;45.550;12.074;2022-07-29T16:48:13;3.03;;;2.05;;
53285;SDS011;39171;45.550;12.074;2022-07-29T16:54:15;2.30;;;1.80;;
53285;SDS011;39171;45.550;12.074;2022-07-29T17:00:17;2.40;;;1.80;;
53285;SDS011;39171;45.550;12.074;2022-07-29T17:06:19;3.70;;;1.88;;
53285;SDS011;39171;45.550;12.074;2022-07-29T17:12:21;2.40;;;1.50;;
53285;SDS011;39171;45.550;12.074;2022-07-29T17:18:23;2.80;;;1.67;;
53285;SDS011;39171;45.550;12.074;2022-07-29T17:24:24;2.40;;;1.80;;
53285;SDS011;39171;45.550;12.074;2022-07-29T17:30:25;2.67;;;1.48;;
53285;SDS011;39171;45.550;12.074;2022-07-29T17:36:27;1.80;;;1.45;;
53285;SDS011;39171;45.550;12.074;2022-07-29T17:42:29;1.88;;;1.48;;
53285;SDS011;39171;45.550;12.074;2022-07-29T17:48:31;2.20;;;1.60;;
53285;SDS011;39171;45.550;12.074;2022-07-29T17:54:32;1.95;;;1.52;;
53285;SDS011;39171;45.550;12.074;2022-07-29T18:00:34;2.40;;;1.77;;
53285;SDS011;39171;45.550;12.074;2022-07-29T18:06:36;2.50;;;1.80;;
53285;SDS011;39171;45.550;12.074;2022-07-29T18:12:37;2.45;;;1.80;;
53285;SDS011;39171;45.550;12.074;2022-07-29T18:18:39;2.17;;;1.70;;
53285;SDS011;39171;45.550;12.074;2022-07-29T18:24:43;2.20;;;1.70;;
53285;SDS011;39171;45.550;12.074;2022-07-29T18:30:44;3.25;;;2.03;;
53285;SDS011;39171;45.550;12.074;2022-07-29T18:36:46;2.28;;;1.52;;
53285;SDS011;39171;45.550;12.074;2022-07-29T18:42:47;2.03;;;1.55;;
53285;SDS011;39171;45.550;12.074;2022-07-29T18:48:49;3.35;;;2.10;;
53285;SDS011;39171;45.550;12.074;2022-07-29T18:54:51;2.95;;;2.30;;
53285;SDS011;39171;45.550;12.074;2022-07-29T19:00:52;3.03;;;2.30;;
53285;SDS011;39171;45.550;12.074;2022-07-29T19:06:54;2.25;;;2.05;;
53285;SDS011;39171;45.550;12.074;2022-07-29T19:12:58;2.25;;;2.00;;
53285;SDS011;39171;45.550;12.074;2022-07-29T19:18:59;3.30;;;2.15;;
53285;SDS011;39171;45.550;12.074;2022-07-29T19:25:01;1.63;;;1.50;;
53285;SDS011;39171;45.550;12.074;2022-07-29T19:31:04;2.47;;;2.03;;
53285;SDS011;39171;45.550;12.074;2022-07-29T19:37:07;2.05;;;1.70;;
53285;SDS011;39171;45.550;12.074;2022-07-29T19:43:08;2.55;;;1.65;;
53285;SDS011;39171;45.550;12.074;2022-07-29T19:49:10;2.08;;;1.60;;
53285;SDS011;39171;45.550;12.074;2022-07-29T19:55:13;1.95;;;1.30;;
53285;SDS011;39171;45.550;12.074;2022-07-29T20:01:15;1.55;;;1.25;;
53285;SDS011;39171;45.550;12.074;2022-07-29T20:07:17;2.25;;;1.40;;
53285;SDS011;39171;45.550;12.074;2022-07-29T20:13:18;1.80;;;1.30;;
53285;SDS011;39171;45.550;12.074;2022-07-29T20:19:20;1.90;;;1.60;;
53285;SDS011;39171;45.550;12.074;2022-07-29T20:25:22;1.60;;;1.40;;
53285;SDS011;39171;45.550;12.074;2022-07-29T20:31:24;1.80;;;1.48;;
53285;SDS011;39171;45.550;12.074;2022-07-29T20:37:25;1.25;;;1.08;;
53285;SDS011;39171;45.550;12.074;2022-07-29T20:43:27;1.67;;;1.25;;
53285;SDS011;39171;45.550;12.074;2022-07-29T20:49:28;1.58;;;1.25;;
53285;SDS011;39171;45.550;12.074;2022-07-29T20:55:30;1.38;;;1.08;;
53285;SDS011;39171;45.550;12.074;2022-07-29T21:01:32;1.42;;;1.10;;
53285;SDS011;39171;45.550;12.074;2022-07-29T21:07:33;1.30;;;0.95;;
53285;SDS011;39171;45.550;12.074;2022-07-29T21:13:37;1.55;;;1.38;;
53285;SDS011;39171;45.550;12.074;2022-07-29T21:19:39;1.80;;;1.30;;
53285;SDS011;39171;45.550;12.074;2022-07-29T21:25:41;1.50;;;1.27;;
53285;SDS011;39171;45.550;12.074;2022-07-29T21:31:43;1.95;;;1.40;;
53285;SDS011;39171;45.550;12.074;2022-07-29T21:37:44;1.58;;;1.30;;
53285;SDS011;39171;45.550;12.074;2022-07-29T21:43:46;1.60;;;1.40;;
53285;SDS011;39171;45.550;12.074;2022-07-29T21:49:48;1.48;;;1.27;;
53285;SDS011;39171;45.550;12.074;2022-07-29T21:55:49;1.50;;;1.10;;
53285;SDS011;39171;45.550;12.074;2022-07-29T22:01:51;1.45;;;1.30;;
53285;SDS011;39171;45.550;12.074;2022-07-29T22:07:53;1.60;;;1.20;;
53285;SDS011;39171;45.550;12.074;2022-07-29T22:13:54;1.30;;;0.98;;
53285;SDS011;39171;45.550;12.074;2022-07-29T22:19:56;1.52;;;1.13;;
53285;SDS011;39171;45.550;12.074;2022-07-29T22:25:58;1.50;;;1.20;;
53285;SDS011;39171;45.550;12.074;2022-07-29T22:31:59;1.60;;;1.15;;
53285;SDS011;39171;45.550;12.074;2022-07-29T22:38:01;1.80;;;1.13;;
53285;SDS011;39171;45.550;12.074;2022-07-29T22:44:03;1.35;;;1.10;;
53285;SDS011;39171;45.550;12.074;2022-07-29T22:50:05;1.73;;;1.13;;
53285;SDS011;39171;45.550;12.074;2022-07-29T22:56:06;2.15;;;1.30;;
53285;SDS011;39171;45.550;12.074;2022-07-29T23:02:08;1.80;;;1.30;;
53285;SDS011;39171;45.550;12.074;2022-07-29T23:08:09;1.90;;;1.50;;
53285;SDS011;39171;45.550;12.074;2022-07-29T23:14:10;1.70;;;0.95;;
53285;SDS011;39171;45.550;12.074;2022-07-29T23:20:12;1.45;;;1.05;;
53285;SDS011;39171;45.550;12.074;2022-07-29T23:26:14;1.10;;;0.88;;
53285;SDS011;39171;45.550;12.074;2022-07-29T23:32:16;1.30;;;0.95;;
53285;SDS011;39171;45.550;12.074;2022-07-29T23:38:17;1.00;;;0.80;;
53285;SDS011;39171;45.550;12.074;2022-07-29T23:44:19;1.00;;;0.75;;
53285;SDS011;39171;45.550;12.074;2022-07-29T23:50:20;1.60;;;1.10;;
53285;SDS011;39171;45.550;12.074;2022-07-29T23:56:22;1.13;;;0.98;;
